Weather observations for the past three days for
Milford Municipal Airport
Imperial (Metric)
Date Time (mdt) Wind (mph) Vis. (mi.) Weather Sky Cond. Temperature (ºF) Relative Humidity Wind Chill (°F) Heat Index (°F) Pressure Precipitation (in)
Air Dwpt 6 hour altimeter (in) sea level (mb) 1 hr 3 hr 6 hr
Max. Min.
09 13:52 N 13 G 23 10.00 Fair CLR 75 19.9 12% 75 30.09 1014.0
09 12:52 N 13 G 25 10.00 Fair CLR 75 21 13% 75 30.11 1014.4
09 11:52 N 16 G 26 10.00 Fair CLR 73.9 21 73.9 42.1 14% 30.12 1014.5
09 10:52 N 18 G 28 10.00 Fair CLR 72 21.9 15% 30.12 1014.5
09 09:52 N 16 10.00 Fair CLR 68 25 20% 30.13 1014.9
09 08:52 N 15 10.00 Fair CLR 64 26.1 24% 30.13 1014.5
09 07:52 N 9 10.00 Fair CLR 57.9 23 26% 30.11 1013.7
09 06:52 N 5 10.00 Fair CLR 46.9 21 36% 45 30.09 1013.5
09 05:52 E 3 10.00 Fair CLR 43 23 57.9 43 45% 30.05 1012.7
09 04:52 S 5 10.00 Fair CLR 46 23 40% 44 30.04 1011.9
09 03:52 S 8 10.00 Fair CLR 46.9 25 42% 44 30.03 1011.4
09 02:52 W 6 10.00 Fair CLR 50 19 29% 48 30.01 1010.8
09 01:52 Calm 10.00 Fair CLR 51.1 18 27% 30.01 1010.8
09 00:52 Calm 10.00 Fair CLR 53.1 18 25% 30 1010.1
08 23:52 Calm 10.00 Fair CLR 57 18 82.9 57 22% 30 1010.0
08 22:52 NW 9 10.00 Fair CLR 61 19 20% 29.98 1009.4
08 21:52 NW 7 10.00 Fair CLR 64 19 18% 29.97 1009.3
08 20:52 N 8 10.00 Fair CLR 70 19.9 15% 29.95 1008.4
08 19:52 NE 8 10.00 Fair CLR 79 21 11% 77 29.94 1007.9
08 18:52 NE 12 10.00 Fair CLR 82 21 10% 80 29.94 1008.6
08 17:52 NE 14 G 23 10.00 Fair CLR 82.9 21.9 84 75.9 10% 80 29.94 1008.8
08 16:52 NE 12 G 25 10.00 Fair CLR 82.9 21.9 10% 80 29.96 1009.4
08 15:52 N 13 G 28 10.00 Fair CLR 82.9 21.9 10% 80 29.99 1010.1
08 14:52 N 15 10.00 Fair CLR 82 23 11% 80 30.01 1010.7
08 13:52 Vrbl 3 G 20 10.00 Fair CLR 79 25 14% 78 30.03 1011.4
08 12:52 N 13 G 20 10.00 Fair CLR 80.1 25 13% 78 30.05 1011.8
08 11:52 Calm 10.00 Fair CLR 75.9 27 77 42.1 16% 76 30.06 1012.5
08 10:52 N 8 10.00 Fair CLR 73.9 27 17% 30.06 1012.5
08 09:52 S 7 10.00 Fair CLR 66.9 27 22% 30.07 1012.6
08 08:52 Calm 10.00 Fair CLR 61 27 27% 30.07 1013.0
08 07:52 S 9 10.00 Fair CLR 54 24.1 31% 30.05 1012.3
08 06:52 S 8 10.00 Fair CLR 43 25 49% 39 30.04 1012.4
08 05:52 S 6 10.00 Fair CLR 43 25 55 42.1 49% 40 30.03 1011.9
08 04:52 S 7 10.00 Fair CLR 43 24.1 47% 39 30.02 1011.7
08 03:52 S 8 10.00 Fair CLR 45 24.1 44% 41 30.01 1011.3
08 02:52 S 7 10.00 Fair CLR 48 26.1 42% 45 30.02 1011.4
08 01:52 SW 10 10.00 Fair CLR 53.1 21 28% 30.02 1011.1
08 00:52 W 5 10.00 Fair CLR 53.1 19 26% 30.01 1011.0
07 23:52 NW 3 10.00 Fair CLR 53.1 17.1 80.1 53.1 24% 30 1010.8
07 22:52 W 8 10.00 Fair CLR 57 17.1 21% 29.99 1010.6
07 21:52 SE 5 10.00 Fair CLR 64.9 19.9 18% 29.97 1009.9
07 20:52 E 6 10.00 Fair CLR 66.9 21 17% 29.95 1009.7
07 19:52 S 5 10.00 Fair CLR 75.9 19.9 12% 76 29.95 1009.7
07 18:52 S 6 10.00 Fair CLR 78.1 19.9 11% 77 29.95 1010.2
07 17:52 Calm 10.00 Fair CLR 80.1 21 81 71.1 11% 78 29.96 1010.3
07 16:52 S 9 10.00 Fair CLR 80.1 21.9 11% 78 29.97 1010.6
07 15:52 S 10 10.00 Fair CLR 80.1 23 12% 78 30 1011.4
07 14:52 Vrbl 7 10.00 Fair CLR 78.1 23 13% 77 30.03 1012.7
07 13:52 SE 9 10.00 Fair CLR 75.9 24.1 14% 76 30.05 1013.5
07 12:52 S 12 G 17 10.00 Fair CLR 73.9 23 15% 30.08 1014.5
07 11:52 S 12 G 24 10.00 Fair CLR 71.1 21 71.1 33.1 15% 30.11 1015.4
07 10:52 S 16 10.00 Fair CLR 66 19 16% 30.12 1016.2
07 09:52 S 20 G 24 10.00 Fair CLR 60.1 16 18% 30.14 1017.5
07 08:52 S 16 10.00 Fair CLR 52 17.1 25% 30.15 1017.9
07 07:52 S 9 10.00 Fair CLR 41 19 41% 36 30.16 1018.4
07 06:52 S 9 10.00 Fair CLR 36 18 48% 30 30.15 1018.4
07 05:52 S 8 10.00 Fair CLR 34 17.1 48 33.1 50% 28 30.15 1018.5
07 04:52 SW 5 10.00 Fair CLR 35.1 10.9 37% 32 30.16 1018.4
07 03:52 S 5 10.00 Fair CLR 37 10.9 34% 34 30.16 1018.4
07 02:52 SW 7 10.00 Fair CLR 37 10.9 34% 32 30.16 1018.8
07 01:52 SW 5 10.00 Fair CLR 39 12.9 34% 36 30.17 1018.8
07 00:52 SW 10 10.00 Fair CLR 43 10.9 27% 38 30.17 1018.6
06 23:52 Calm 10.00 Fair CLR 46.9 12 66 43 24% 30.16 1018.3
06 22:52 W 9 10.00 Fair CLR 46.9 12 24% 43 30.17 1018.9
06 21:52 Calm 10.00 Fair CLR 46.9 12 24% 30.16 1018.7
06 20:52 NE 7 10.00 Fair CLR 55 12.9 19% 30.15 1017.9
06 19:52 NE 15 10.00 Fair CLR 63 12.9 14% 30.13 1017.0
06 18:52 NE 16 G 26 10.00 Fair CLR 64.9 14 14% 30.12 1016.7
06 17:52 NE 17 G 25 10.00 Fair CLR 66 12.9 68 59 13% 30.11 1016.1
06 16:52 N 10 G 35 10.00 Fair CLR 66.9 17.1 15% 30.11 1016.0
06 15:52 N 21 G 32 10.00 Fair and Breezy CLR 66.9 19.9 17% 30.12 1015.9
06 14:52 NE 14 G 30 10.00 Fair CLR 64.9 19.9 18% 30.12 1016.5
Date Time (mdt) Wind (mph) Vis. (mi.) Weather Sky Cond. Air Dwpt Max. Min. Relative Humidity Wind Chill (°F) Heat Index (°F) altimeter (in) sea level (mb) 1 hr 3 hr 6 hr
6 hour
Temperature (ºF) Pressure Precipitation (in)